Time;durP1;ratioP1;P1;durP2;ratioP2;P2;SDS_P1;SDS_P2;PMS_P1;PMS_P2;Temp;Humidity;BMP_temperature;BMP_pressure;BME280_temperature;BME280_humidity;BME280_pressure;Samples;Min_cycle;Max_cycle;Signal;HPM_P1;HPM_P2
2023/04/10 00:00:09;;;;;;;80.90;52.87;;;;;;;6.98;85.48;100930.45;125354;1099;104044;-80
2023/04/10 00:03:02;;;;;;;74.45;45.58;;;;;;;6.97;85.41;100925.14;124903;1099;104017;-80
2023/04/10 00:05:35;;;;;;;67.97;44.10;;;;;;;6.95;85.77;100925.05;125315;1099;104188;-80
2023/04/10 00:08:07;;;;;;;65.00;41.23;;;;;;;6.88;85.47;100925.50;124945;1098;103990;-81
2023/04/10 00:10:39;;;;;;;61.53;37.50;;;;;;;6.76;85.46;100925.72;125345;1099;103995;-80
2023/04/10 00:13:12;;;;;;;62.05;37.00;;;;;;;6.70;85.40;100927.97;125401;1099;101831;-80
2023/04/10 00:15:44;;;;;;;106.80;34.85;;;;;;;6.60;85.10;100923.02;125302;1098;102208;-81
2023/04/10 00:18:16;;;;;;;66.07;35.73;;;;;;;6.52;85.01;100932.99;125456;1099;104133;-82
2023/04/10 00:20:49;;;;;;;64.07;36.00;;;;;;;6.50;85.40;100923.27;125392;1099;101876;-81
2023/04/10 00:23:21;;;;;;;59.50;36.30;;;;;;;6.53;85.59;100920.84;125401;1099;101705;-81
2023/04/10 00:25:53;;;;;;;59.97;35.43;;;;;;;6.56;85.77;100923.63;125171;1099;103903;-81
2023/04/10 00:28:25;;;;;;;55.77;34.97;;;;;;;6.57;85.67;100926.33;125430;1098;104035;-81
2023/04/10 00:30:57;;;;;;;56.63;35.30;;;;;;;6.58;86.00;100925.53;125468;1099;101947;-81
2023/04/10 00:33:30;;;;;;;59.20;36.57;;;;;;;6.57;86.09;100925.44;125430;1099;103172;-81
2023/04/10 00:36:02;;;;;;;61.13;36.33;;;;;;;6.55;85.88;100927.95;125437;1099;103463;-80
2023/04/10 00:38:35;;;;;;;60.83;37.47;;;;;;;6.50;85.60;100928.48;125329;1099;103996;-80
2023/04/10 00:41:08;;;;;;;63.80;38.37;;;;;;;6.48;85.81;100924.10;125501;1099;103952;-79
2023/04/10 00:43:40;;;;;;;61.80;37.10;;;;;;;6.50;85.85;100920.66;125402;1099;102034;-81
2023/04/10 00:46:13;;;;;;;61.60;38.73;;;;;;;6.49;86.12;100922.38;125431;1099;101838;-82
2023/04/10 00:48:46;;;;;;;61.93;37.07;;;;;;;6.48;86.01;100920.58;125428;1099;103887;-80
2023/04/10 00:51:19;;;;;;;58.00;35.53;;;;;;;6.47;86.20;100924.90;124846;1099;101901;-81
2023/04/10 00:53:53;;;;;;;54.00;33.83;;;;;;;6.43;85.88;100917.70;124910;1099;101739;-81
2023/04/10 00:56:26;;;;;;;53.92;34.10;;;;;;;6.42;86.16;100913.31;125489;1099;103027;-82
2023/04/10 00:58:58;;;;;;;51.03;33.07;;;;;;;6.41;86.04;100908.90;125436;1099;103945;-82
2023/04/10 01:01:31;;;;;;;47.10;30.07;;;;;;;6.41;86.43;100911.50;125124;1099;102099;-82
2023/04/10 01:04:03;;;;;;;47.93;30.77;;;;;;;6.40;86.37;100912.30;125510;1099;101670;-82
2023/04/10 01:07:08;;;;;;;48.30;31.70;;;;;;;6.39;86.27;100909.60;125467;1099;101647;-81
2023/04/10 01:09:44;;;;;;;56.40;33.28;;;;;;;6.34;86.22;100905.83;125379;1098;102109;-82
2023/04/10 01:12:33;;;;;;;53.37;33.53;;;;;;;6.32;86.40;100910.07;125401;1099;103987;-81
2023/04/10 01:15:10;;;;;;;56.07;34.30;;;;;;;6.29;86.47;100908.17;125478;1099;101710;-82
2023/04/10 01:17:47;;;;;;;54.45;33.60;;;;;;;6.27;86.18;100907.19;125538;1099;101918;-82
2023/04/10 01:20:22;;;;;;;52.43;32.67;;;;;;;6.24;86.42;100897.47;125328;1099;101715;-83
2023/04/10 01:23:31;;;;;;;53.47;33.53;;;;;;;6.26;86.66;100905.38;125373;1099;104129;-80
2023/04/10 01:26:06;;;;;;;54.67;33.40;;;;;;;6.26;86.54;100903.70;125130;1099;104159;-80
2023/04/10 01:28:55;;;;;;;52.00;32.67;;;;;;;6.26;86.71;100897.56;125310;1099;101736;-79
2023/04/10 01:31:35;;;;;;;55.93;34.93;;;;;;;6.24;86.71;100896.58;124848;1099;111120;-81
2023/04/10 01:34:13;;;;;;;56.73;36.23;;;;;;;6.24;87.01;100891.37;125467;1099;102649;-81
2023/04/10 01:36:50;;;;;;;53.10;33.63;;;;;;;6.19;87.05;100880.67;125474;1099;102517;-83
2023/04/10 01:39:24;;;;;;;54.63;34.03;;;;;;;6.24;86.77;100891.37;124946;1099;101644;-81
2023/04/10 01:41:58;;;;;;;56.98;35.65;;;;;;;6.24;86.93;100888.77;125336;1099;102254;-81
2023/04/10 01:44:41;;;;;;;;;;;;;;;6.25;87.56;100893.18;125436;1098;104112;-81
2023/04/10 01:47:17;;;;;;;51.33;31.57;;;;;;;6.22;86.95;100890.39;125392;1099;101808;-80
2023/04/10 01:49:50;;;;;;;52.53;33.30;;;;;;;6.12;86.78;100888.92;125269;1099;102112;-82
2023/04/10 01:52:25;;;;;;;55.48;34.45;;;;;;;6.02;87.69;100899.62;124957;1098;101932;-82
2023/04/10 01:55:09;;;;;;;50.65;31.75;;;;;;;5.89;88.18;100900.52;124941;1099;103976;-80
2023/04/10 01:57:49;;;;;;;56.20;33.17;;;;;;;5.76;89.00;100905.02;124947;1099;103996;-82
2023/04/10 02:00:22;;;;;;;57.93;34.73;;;;;;;5.68;87.70;100905.33;125002;1099;102682;-81
2023/04/10 02:02:57;;;;;;;58.33;36.67;;;;;;;5.65;87.66;100897.33;125430;1098;104017;-81
2023/04/10 02:05:39;;;;;;;61.75;37.25;;;;;;;5.66;87.47;100901.74;125434;1099;101846;-81
2023/04/10 02:08:15;;;;;;;66.47;36.50;;;;;;;5.66;87.49;100892.22;125406;1099;103010;-81
2023/04/10 02:13:53;;;;;;;56.60;33.90;;;;;;;5.78;88.00;100896.38;125473;1099;102551;-83
2023/04/10 02:16:26;;;;;;;57.33;33.47;;;;;;;5.75;87.71;100895.39;125441;1099;101805;-82
2023/04/10 02:19:00;;;;;;;53.23;32.03;;;;;;;5.69;87.50;100895.01;125016;1099;104073;-83
2023/04/10 02:21:33;;;;;;;54.35;33.53;;;;;;;5.64;87.65;100893.84;125306;1099;104006;-81
2023/04/10 02:24:05;;;;;;;52.27;32.43;;;;;;;5.57;87.36;100897.74;125361;1099;104022;-82
2023/04/10 02:26:48;;;;;;;56.33;34.03;;;;;;;5.52;88.07;100891.36;125528;1099;104117;-81
2023/04/10 02:29:20;;;;;;;55.67;34.07;;;;;;;5.47;87.91;100894.47;125552;1099;102544;-82
2023/04/10 02:31:53;;;;;;;55.97;34.20;;;;;;;5.46;87.98;100892.69;125432;1099;102144;-81
2023/04/10 02:34:26;;;;;;;56.63;34.37;;;;;;;5.47;87.71;100897.07;125401;1099;103952;-81
2023/04/10 02:36:58;;;;;;;56.50;35.33;;;;;;;5.50;88.28;100898.19;125463;1099;101725;-81
2023/04/10 02:39:30;;;;;;;54.20;33.80;;;;;;;5.51;88.16;100896.47;125482;1099;103963;-81
2023/04/10 02:42:03;;;;;;;55.10;33.83;;;;;;;5.50;87.82;100894.66;125369;1099;101664;-82
2023/04/10 02:44:35;;;;;;;56.80;35.30;;;;;;;5.44;88.30;100900.41;125357;1099;103915;-82
2023/04/10 02:47:08;;;;;;;55.40;33.73;;;;;;;5.40;88.30;100895.80;125414;1099;103923;-82
2023/04/10 02:49:40;;;;;;;57.00;34.03;;;;;;;5.37;88.21;100896.49;125133;1099;103005;-81
2023/04/10 02:52:17;;;;;;;56.23;34.57;;;;;;;5.35;88.38;100900.72;125348;1099;104027;-81
2023/04/10 02:54:49;;;;;;;57.73;35.27;;;;;;;5.36;88.15;100897.32;125463;1099;101744;-82
2023/04/10 02:57:21;;;;;;;58.70;36.25;;;;;;;5.42;88.46;100894.18;125365;1099;104027;-81
2023/04/10 02:59:54;;;;;;;56.10;34.70;;;;;;;5.47;88.62;100892.79;124925;1099;104054;-80
2023/04/10 03:02:27;;;;;;;57.47;35.80;;;;;;;5.52;88.74;100893.97;125127;1099;104079;-81
2023/04/10 03:05:00;;;;;;;59.57;35.63;;;;;;;5.56;88.49;100888.16;125454;1099;101976;-81
2023/04/10 03:07:33;;;;;;;56.77;33.87;;;;;;;5.62;88.89;100894.53;125445;1099;101911;-81
2023/04/10 03:10:06;;;;;;;57.40;35.33;;;;;;;5.66;88.71;100888.72;125453;1099;104127;-81
2023/04/10 03:12:38;;;;;;;58.27;35.37;;;;;;;5.67;88.90;100883.61;125465;1099;104064;-81
2023/04/10 03:15:12;;;;;;;56.23;34.93;;;;;;;5.69;88.64;100881.99;125210;1099;102097;-81
2023/04/10 03:17:44;;;;;;;58.28;35.50;;;;;;;5.73;89.01;100885.67;124968;1099;102539;-81
2023/04/10 03:20:16;;;;;;;57.30;35.13;;;;;;;5.76;89.08;100888.47;124930;1099;102106;-81
2023/04/10 03:22:49;;;;;;;56.27;35.10;;;;;;;5.79;89.06;100893.86;125413;1098;101688;-82
2023/04/10 03:25:21;;;;;;;57.37;36.07;;;;;;;5.81;88.95;100891.34;125248;1099;104380;-82
2023/04/10 03:27:54;;;;;;;55.83;33.70;;;;;;;5.80;88.55;100887.86;125531;1099;101654;-82
2023/04/10 03:30:28;;;;;;;55.17;33.30;;;;;;;5.74;88.53;100888.37;125649;1098;104044;-81
2023/04/10 03:33:00;;;;;;;51.07;32.10;;;;;;;5.70;88.65;100886.41;125094;1099;104148;-81
2023/04/10 03:35:32;;;;;;;55.73;34.40;;;;;;;5.65;88.34;100881.70;125521;1099;104034;-82
2023/04/10 03:38:05;;;;;;;54.27;33.40;;;;;;;5.58;88.25;100888.25;125215;1099;103893;-81
2023/04/10 03:40:37;;;;;;;56.47;34.77;;;;;;;5.54;88.57;100886.25;125447;1099;102032;-81
2023/04/10 03:43:10;;;;;;;56.57;34.17;;;;;;;5.52;88.68;100890.47;125355;1099;101850;-82
2023/04/10 03:45:42;;;;;;;56.07;34.20;;;;;;;5.51;88.52;100886.06;125473;1099;103999;-81
2023/04/10 03:48:15;;;;;;;59.13;34.53;;;;;;;5.49;88.82;100891.17;125463;1099;103977;-79
2023/04/10 03:50:49;;;;;;;59.80;35.53;;;;;;;5.45;88.90;100883.07;125388;1099;103874;-81
2023/04/10 03:53:21;;;;;;;55.77;33.63;;;;;;;5.43;88.76;100887.30;125379;1099;101702;-80
2023/04/10 03:55:53;;;;;;;58.03;33.90;;;;;;;5.38;88.34;100885.30;125469;1099;104063;-81
2023/04/10 03:58:27;;;;;;;52.93;31.13;;;;;;;5.36;88.91;100885.98;125246;1099;104035;-81
2023/04/10 04:01:00;;;;;;;55.57;33.60;;;;;;;5.34;88.77;100883.29;125402;1098;104063;-80
2023/04/10 04:03:39;;;;;;;56.70;33.57;;;;;;;5.34;88.93;100892.81;125232;1099;103938;-80
2023/04/10 04:06:31;;;;;;;58.37;33.93;;;;;;;5.39;89.09;100892.31;125360;1099;103951;-80
2023/04/10 04:09:15;;;;;;;57.03;31.67;;;;;;;5.42;89.49;100894.18;125528;1099;101695;-79
2023/04/10 04:12:10;;;;;;;56.87;31.80;;;;;;;5.40;89.22;100894.08;125380;1099;102115;-82
2023/04/10 04:14:51;;;;;;;55.60;33.13;;;;;;;5.38;89.46;100897.41;125453;1099;107101;-82
2023/04/10 04:17:42;;;;;;;56.90;33.73;;;;;;;5.36;89.41;100899.00;125517;1099;104025;-79
2023/04/10 04:20:14;;;;;;;56.13;32.77;;;;;;;5.37;89.25;100898.20;125451;1099;101609;-81
2023/04/10 04:22:55;;;;;;;57.07;34.47;;;;;;;5.38;89.14;100900.91;125559;1099;101856;-80
2023/04/10 04:25:48;;;;;;;56.37;31.67;;;;;;;5.37;89.46;100899.09;125443;1099;104165;-81
2023/04/10 04:28:47;;;;;;;53.47;32.00;;;;;;;5.35;89.38;100903.31;125583;1099;103948;-82
2023/04/10 04:31:19;;;;;;;59.03;34.13;;;;;;;5.35;89.80;100905.92;125570;1099;102976;-82
2023/04/10 04:34:10;;;;;;;57.70;34.37;;;;;;;5.37;90.63;100904.30;125546;1098;104424;-82
2023/04/10 04:37:01;;;;;;;59.03;34.20;;;;;;;5.40;89.82;100911.41;125662;1099;103987;-81
2023/04/10 04:39:59;;;;;;;62.83;37.13;;;;;;;5.43;90.24;100906.41;125190;1099;101838;-81
2023/04/10 04:42:52;;;;;;;59.67;35.03;;;;;;;5.46;90.60;100903.99;125580;1099;103941;-80
2023/04/10 04:45:50;;;;;;;58.17;34.77;;;;;;;5.47;90.30;100907.48;125309;1099;102014;-82
2023/04/10 04:48:45;;;;;;;60.47;35.17;;;;;;;5.48;90.11;100907.58;125631;1098;103967;-82
2023/04/10 04:51:34;;;;;;;60.93;34.93;;;;;;;5.50;90.41;100910.28;125592;1098;104085;-82
2023/04/10 04:54:17;;;;;;;55.63;33.30;;;;;;;5.58;90.97;100919.49;125660;1099;104024;-82
2023/04/10 04:57:07;;;;;;;54.10;32.60;;;;;;;5.70;91.52;100915.05;125521;1099;103512;-80
2023/04/10 05:00:00;;;;;;;55.70;33.77;;;;;;;5.80;91.43;100923.39;125186;1099;103974;-78
2023/04/10 05:03:14;;;;;;;52.65;32.30;;;;;;;5.86;92.02;100926.38;124682;1101;103513;-79
2023/04/10 05:06:07;;;;;;;55.77;32.13;;;;;;;5.90;91.90;100925.77;125079;1102;102429;-81
2023/04/10 05:09:00;;;;;;;52.90;33.00;;;;;;;5.96;91.89;100920.94;125792;1099;104005;-79
2023/04/10 05:12:01;;;;;;;55.40;32.83;;;;;;;6.05;91.77;100924.14;125598;1100;101598;-80
2023/04/10 05:14:50;;;;;;;54.50;32.60;;;;;;;6.16;91.54;100926.50;126021;1099;103852;-80
2023/04/10 05:17:35;;;;;;;56.43;32.20;;;;;;;6.27;92.44;100920.22;126175;1099;104409;-79
2023/04/10 05:20:27;;;;;;;55.80;33.30;;;;;;;6.35;91.58;100916.35;125997;1099;101442;-77
2023/04/10 05:23:10;;;;;;;51.37;31.70;;;;;;;6.47;91.54;100919.69;125312;1099;101720;-79
2023/04/10 05:26:02;;;;;;;53.57;31.37;;;;;;;6.57;92.19;100918.51;125614;1099;104118;-78
2023/04/10 05:29:07;;;;;;;53.60;32.37;;;;;;;6.63;91.33;100915.37;125315;1102;101964;-80
2023/04/10 05:32:19;;;;;;;51.10;31.67;;;;;;;6.64;93.27;100906.75;125172;1101;104198;-79
2023/04/10 05:35:12;;;;;;;52.93;33.30;;;;;;;6.77;92.58;100922.27;125168;1103;103958;-81
2023/04/10 05:38:01;;;;;;;54.83;32.37;;;;;;;6.84;92.99;100915.73;125348;1099;102010;-80
2023/04/10 05:44:22;;;;;;;59.60;33.90;;;;;;;7.06;93.31;100920.45;125689;1099;102149;-84
2023/04/10 05:47:25;;;;;;;57.53;34.67;;;;;;;7.18;93.91;100923.75;126970;1097;111716;-82
2023/04/10 05:50:49;;;;;;;58.43;34.40;;;;;;;7.31;92.98;100919.22;125732;1099;101645;-78
2023/04/10 05:53:44;;;;;;;53.10;31.83;;;;;;;7.38;93.41;100922.22;125804;1099;102527;-80
2023/04/10 05:56:40;;;;;;;55.80;33.00;;;;;;;7.52;92.86;100924.70;126038;1099;103391;-84
2023/04/10 05:59:29;;;;;;;52.70;31.43;;;;;;;7.65;93.18;100928.87;126345;1098;102261;-80
2023/04/10 06:02:15;;;;;;;48.10;29.80;;;;;;;7.75;93.34;100923.34;126336;1099;101917;-82
2023/04/10 06:05:02;;;;;;;52.00;31.60;;;;;;;7.85;93.07;100923.03;126308;1099;102182;-78
2023/04/10 06:07:36;;;;;;;49.87;30.83;;;;;;;7.95;93.37;100921.80;125431;1099;103289;-80
2023/04/10 06:10:15;;;;;;;49.45;30.97;;;;;;;8.02;92.56;100920.39;125490;1099;104079;-82
2023/04/10 06:12:51;;;;;;;53.73;30.57;;;;;;;8.15;92.66;100921.92;127686;1098;101133;-82
2023/04/10 06:15:30;;;;;;;48.53;29.53;;;;;;;8.26;92.35;100918.18;126119;1098;104025;-80
2023/04/10 06:18:05;;;;;;;51.53;30.00;;;;;;;8.40;92.62;100927.63;125843;1099;102681;-78
2023/04/10 06:20:44;;;;;;;51.77;30.03;;;;;;;8.52;92.01;100922.13;125819;1099;104051;-80
2023/04/10 06:23:21;;;;;;;46.90;28.93;;;;;;;8.63;92.11;100920.06;126063;1098;101617;-78
2023/04/10 06:25:59;;;;;;;49.70;30.77;;;;;;;8.76;92.25;100922.48;125514;1099;104031;-81
2023/04/10 06:28:36;;;;;;;52.40;30.83;;;;;;;8.87;92.28;100928.25;126842;1098;101863;-80
2023/04/10 06:31:41;;;;;;;52.83;30.70;;;;;;;8.99;92.04;100926.23;124932;1099;101809;-80
2023/04/10 06:34:15;;;;;;;45.20;28.77;;;;;;;9.12;92.43;100921.59;125373;1099;104503;-81
2023/04/10 06:37:17;;;;;;;;;;;;;;;;;;;;;
2023/04/10 06:40:29;;;;;;;54.90;31.40;;;;;;;9.47;92.90;100922.36;126174;1099;104048;-81
2023/04/10 06:43:12;;;;;;;48.00;30.43;;;;;;;9.64;92.15;100918.79;126738;1098;101622;-83
2023/04/10 06:45:45;;;;;;;49.33;29.80;;;;;;;9.78;92.66;100921.16;125696;1099;101714;-79
2023/04/10 06:48:25;;;;;;;52.40;29.77;;;;;;;9.88;91.92;100915.52;125515;1099;103977;-77
2023/04/10 06:51:01;;;;;;;51.20;31.37;;;;;;;9.97;91.36;100920.27;124792;1099;104021;-78
2023/04/10 06:53:34;;;;;;;43.67;27.37;;;;;;;10.07;91.84;100910.25;126296;1098;102301;-80
2023/04/10 06:56:13;;;;;;;49.07;28.43;;;;;;;10.23;92.46;100909.19;126036;1099;101580;-81
2023/04/10 06:58:46;;;;;;;47.23;28.10;;;;;;;10.41;92.50;100905.63;126652;1098;101571;-83
2023/04/10 07:01:27;;;;;;;44.00;26.90;;;;;;;10.51;92.29;100906.91;125529;1099;101675;-85
2023/04/10 07:04:04;;;;;;;45.47;27.33;;;;;;;10.58;91.73;100901.06;125358;1101;104117;-80
2023/04/10 07:06:41;;;;;;;49.40;29.05;;;;;;;10.75;92.05;100901.77;126010;1099;104025;-79
2023/04/10 07:09:26;;;;;;;45.83;26.67;;;;;;;10.97;91.36;100898.33;125967;1099;110784;-81
2023/04/10 07:12:13;;;;;;;41.10;25.17;;;;;;;11.21;91.25;100898.39;126071;1099;103944;-81
2023/04/10 07:14:51;;;;;;;37.27;22.13;;;;;;;11.41;88.34;100904.42;126174;1099;102013;-79
2023/04/10 07:17:29;;;;;;;39.33;24.07;;;;;;;11.59;88.40;100901.59;126059;1099;101717;-79
2023/04/10 07:20:16;;;;;;;40.37;22.73;;;;;;;11.71;87.88;100900.28;126321;1098;101447;-81
2023/04/10 07:22:51;;;;;;;38.37;22.23;;;;;;;11.79;89.09;100899.70;126383;1099;101650;-78
2023/04/10 07:25:24;;;;;;;38.00;22.10;;;;;;;11.83;87.08;100903.37;126126;1099;104105;-81
2023/04/10 07:28:12;;;;;;;39.67;22.70;;;;;;;11.91;87.63;100901.02;125840;1099;104102;-82
2023/04/10 07:30:49;;;;;;;41.87;21.70;;;;;;;12.08;89.46;100897.30;126642;1099;103442;-81
2023/04/10 07:33:37;;;;;;;38.70;22.33;;;;;;;12.28;89.70;100897.09;126705;1098;101656;-79
2023/04/10 07:36:31;;;;;;;42.03;23.17;;;;;;;12.42;89.23;100901.13;126473;1099;101522;-82
2023/04/10 07:42:34;;;;;;;28.23;18.63;;;;;;;12.59;87.28;100894.69;126119;1099;103973;-81
2023/04/10 07:45:45;;;;;;;25.70;16.10;;;;;;;12.59;84.47;100902.58;126667;1099;101565;-82
2023/04/10 07:48:38;;;;;;;18.27;10.60;;;;;;;12.45;83.42;100885.44;126055;1099;104060;-83
2023/04/10 07:51:14;;;;;;;16.93;9.00;;;;;;;12.48;81.93;100893.44;126067;1099;103983;-84
2023/04/10 07:53:53;;;;;;;15.47;8.43;;;;;;;12.54;81.84;100890.09;126819;1098;101551;-82
2023/04/10 07:56:36;;;;;;;16.63;9.33;;;;;;;12.61;83.97;100889.47;126135;1099;103990;-81
2023/04/10 07:59:13;;;;;;;18.33;9.57;;;;;;;12.73;83.77;100891.59;125921;1099;101705;-81
2023/04/10 08:01:54;;;;;;;17.07;9.40;;;;;;;12.79;82.36;100897.07;125561;1099;101872;-83
2023/04/10 08:04:32;;;;;;;;;;;;;;;12.79;80.69;100883.91;125874;1099;104059;-79
2023/04/10 08:07:11;;;;;;;20.60;10.00;;;;;;;12.93;81.60;100887.91;126164;1099;103981;-79
2023/04/10 08:09:52;;;;;;;16.63;8.20;;;;;;;13.08;82.02;100882.20;125870;1099;104038;-83
2023/04/10 08:12:44;;;;;;;18.37;8.50;;;;;;;13.25;82.19;100884.49;126665;1099;101507;-81
2023/04/10 08:15:20;;;;;;;15.93;8.40;;;;;;;13.30;79.57;100881.13;126013;1099;101532;-81
2023/04/10 08:17:57;;;;;;;18.53;9.40;;;;;;;13.34;79.94;100881.26;125862;1099;103992;-80
2023/04/10 08:20:35;;;;;;;17.73;9.20;;;;;;;13.37;80.32;100883.98;125301;1099;103952;-81
2023/04/10 08:23:26;;;;;;;18.17;8.17;;;;;;;13.38;81.05;100873.49;126767;1098;102173;-82
2023/04/10 08:26:11;;;;;;;17.00;8.87;;;;;;;13.51;80.68;100871.22;126811;1098;101577;-81
2023/04/10 08:28:49;;;;;;;18.53;8.47;;;;;;;13.71;79.81;100875.33;125872;1099;101894;-86
2023/04/10 08:31:32;;;;;;;15.23;8.17;;;;;;;13.80;77.15;100866.80;127336;1098;101510;-84
2023/04/10 08:34:07;;;;;;;15.23;8.27;;;;;;;13.77;77.46;100869.34;126245;1099;101516;-80
2023/04/10 08:37:08;;;;;;;16.07;8.40;;;;;;;13.93;78.35;100866.31;126040;1099;101792;-82
2023/04/10 08:39:48;;;;;;;14.77;8.00;;;;;;;14.19;75.02;100869.66;126504;1098;102399;-84
2023/04/10 08:42:23;;;;;;;14.47;7.83;;;;;;;14.31;77.17;100853.23;126056;1099;102168;-80
2023/04/10 08:44:58;;;;;;;14.53;8.00;;;;;;;14.38;76.57;100855.20;126582;1098;101914;-83
2023/04/10 08:47:40;;;;;;;16.23;8.03;;;;;;;14.39;77.00;100850.80;126490;1099;101041;-79
2023/04/10 08:50:16;;;;;;;13.93;7.73;;;;;;;14.41;75.91;100849.08;126122;1098;104009;-78
2023/04/10 08:52:54;;;;;;;13.57;7.50;;;;;;;14.42;75.57;100850.87;125477;1099;102001;-82
2023/04/10 08:55:32;;;;;;;15.40;8.13;;;;;;;14.20;72.86;100844.16;124887;1099;102088;-79
2023/04/10 08:58:12;;;;;;;16.80;7.70;;;;;;;14.12;73.06;100846.59;125442;1099;101818;-81
2023/04/10 09:00:49;;;;;;;13.90;7.63;;;;;;;14.00;68.87;100840.98;126745;1098;101912;-79
2023/04/10 09:03:32;;;;;;;13.23;7.10;;;;;;;13.96;69.50;100837.37;126699;1098;103973;-84
2023/04/10 09:06:11;;;;;;;13.23;7.37;;;;;;;13.91;69.99;100831.05;125808;1099;101870;-79
2023/04/10 09:08:55;;;;;;;14.13;7.20;;;;;;;13.91;70.73;100828.42;125674;1098;101645;-77
2023/04/10 09:12:02;;;;;;;12.47;7.10;;;;;;;13.97;69.15;100823.31;126400;1098;102057;-81
2023/04/10 09:14:40;;;;;;;14.43;7.17;;;;;;;13.97;68.48;100831.22;126978;1098;101650;-81
2023/04/10 09:17:16;;;;;;;14.60;8.00;;;;;;;13.84;68.81;100830.00;127073;1098;101847;-76
2023/04/10 09:19:54;;;;;;;15.10;8.10;;;;;;;13.71;69.68;100825.22;126499;1099;101742;-74
2023/04/10 09:22:35;;;;;;;12.77;7.43;;;;;;;13.68;71.15;100821.62;127401;1098;101907;-75
2023/04/10 09:25:32;;;;;;;14.57;7.77;;;;;;;13.58;69.19;100818.72;126286;1099;101974;-78
2023/04/10 09:28:18;;;;;;;13.67;7.57;;;;;;;13.58;67.75;100820.47;126942;1098;101672;-77
2023/04/10 09:30:52;;;;;;;16.20;7.73;;;;;;;13.72;69.64;100811.20;126184;1099;101941;-76
2023/04/10 09:33:34;;;;;;;12.83;7.40;;;;;;;13.86;69.26;100810.70;126287;1098;107216;-79
2023/04/10 09:36:14;;;;;;;20.85;8.60;;;;;;;13.90;67.81;100813.47;126896;1098;104082;-76
2023/04/10 09:38:55;;;;;;;14.87;8.27;;;;;;;13.93;65.03;100813.55;125270;1099;104035;-78
2023/04/10 09:41:28;;;;;;;13.73;7.60;;;;;;;14.00;64.07;100814.59;126620;1098;101813;-78
2023/04/10 09:44:09;;;;;;;16.50;9.40;;;;;;;14.02;67.22;100808.52;125923;1099;104031;-79
2023/04/10 09:46:42;;;;;;;19.07;9.10;;;;;;;14.05;68.34;100809.44;125481;1099;103938;-77
2023/04/10 09:49:17;;;;;;;16.20;8.63;;;;;;;14.01;68.28;100806.72;125355;1099;101892;-78
2023/04/10 09:51:52;;;;;;;15.80;8.97;;;;;;;13.99;68.54;100803.16;125446;1099;104089;-81
2023/04/10 09:54:37;;;;;;;15.07;8.53;;;;;;;14.08;68.13;100799.84;124741;1102;103974;-80
2023/04/10 09:57:14;;;;;;;20.70;9.00;;;;;;;14.27;68.76;100797.69;124782;1099;101882;-78
2023/04/10 09:59:50;;;;;;;17.07;8.73;;;;;;;14.35;68.17;100790.84;126455;1098;101934;-81
2023/04/10 10:02:32;;;;;;;14.87;8.40;;;;;;;14.38;64.03;100791.84;125540;1099;101585;-83
2023/04/10 10:05:07;;;;;;;16.40;8.37;;;;;;;14.45;66.02;100790.23;126033;1099;101610;-81
2023/04/10 10:07:50;;;;;;;15.90;8.77;;;;;;;14.57;66.60;100789.65;127350;1098;101360;-79
2023/04/10 10:10:33;;;;;;;16.33;8.77;;;;;;;14.63;67.36;100783.63;126585;1098;104009;-81
2023/04/10 10:13:16;;;;;;;14.63;8.08;;;;;;;14.74;66.42;100776.88;127019;1089;101639;-78
2023/04/10 10:16:03;;;;;;;15.57;8.27;;;;;;;14.85;67.51;100778.00;125950;1099;101799;-82
2023/04/10 10:18:53;;;;;;;18.07;8.93;;;;;;;14.93;65.75;100778.18;126535;1098;103869;-81
2023/04/10 10:21:26;;;;;;;14.63;8.50;;;;;;;14.94;67.01;100781.70;126311;1098;101628;-77
2023/04/10 10:24:03;;;;;;;17.65;8.48;;;;;;;15.03;66.03;100773.98;125171;1099;103919;-79
2023/04/10 10:26:38;;;;;;;15.87;8.53;;;;;;;15.20;67.34;100771.70;125087;1099;104076;-80
2023/04/10 10:29:17;;;;;;;15.87;8.10;;;;;;;15.38;66.41;100765.88;117089;1099;10001488;-80
2023/04/10 10:31:57;;;;;;;16.65;8.25;;;;;;;15.48;62.37;100769.63;127205;1098;101289;-79
2023/04/10 10:34:40;;;;;;;14.67;8.13;;;;;;;15.41;61.26;100776.52;125460;1099;102585;-84
2023/04/10 10:37:20;;;;;;;16.83;8.60;;;;;;;15.30;58.54;100776.30;125988;1099;102234;-81
2023/04/10 10:40:04;;;;;;;16.90;8.50;;;;;;;15.19;58.27;100772.55;126280;1099;103951;-81
2023/04/10 10:42:47;;;;;;;15.47;7.93;;;;;;;15.14;57.69;100774.21;127072;1098;101478;-80
2023/04/10 10:45:49;;;;;;;15.97;8.20;;;;;;;15.15;55.41;100774.25;125954;1102;103961;-81
2023/04/10 10:48:30;;;;;;;15.70;8.30;;;;;;;15.23;56.29;100763.84;125942;1098;101892;-82
2023/04/10 10:51:08;;;;;;;15.23;8.17;;;;;;;15.29;61.23;100761.32;125724;1099;101596;-82
2023/04/10 10:53:48;;;;;;;14.20;8.10;;;;;;;15.28;60.25;100767.45;126542;1099;104102;-80
2023/04/10 10:56:45;;;;;;;14.30;8.30;;;;;;;15.18;59.37;100765.50;126156;1097;101497;-79
2023/04/10 10:59:59;;;;;;;16.13;8.03;;;;;;;15.13;58.94;100767.13;125946;1098;101631;-76
2023/04/10 11:03:09;;;;;;;15.53;7.83;;;;;;;15.17;57.23;100771.64;125686;1099;101906;-77
2023/04/10 11:06:01;;;;;;;13.90;8.00;;;;;;;15.15;58.30;100755.74;125894;1098;108207;-80
2023/04/10 11:08:44;;;;;;;14.23;8.20;;;;;;;15.12;57.07;100754.80;126043;1099;101738;-80
2023/04/10 11:11:23;;;;;;;16.03;8.47;;;;;;;15.21;58.45;100750.59;125244;1099;103849;-76
2023/04/10 11:14:21;;;;;;;16.03;8.30;;;;;;;15.32;57.35;100756.09;126009;1098;101913;-77
2023/04/10 11:16:57;;;;;;;16.30;8.40;;;;;;;15.35;57.48;100757.89;126317;1098;101824;-78
2023/04/10 11:19:59;;;;;;;14.33;8.10;;;;;;;15.33;56.55;100744.64;126897;1098;103814;-77
2023/04/10 11:23:10;;;;;;;15.83;7.90;;;;;;;15.26;50.77;100751.56;127261;1098;101472;-78
2023/04/10 11:25:58;;;;;;;14.37;7.60;;;;;;;15.23;55.79;100747.98;126611;1099;101271;-75
2023/04/10 11:28:43;;;;;;;14.50;7.87;;;;;;;15.27;56.70;100744.55;127156;1098;101404;-80
2023/04/10 11:31:28;;;;;;;16.07;8.10;;;;;;;15.37;57.40;100743.85;125962;1101;103493;-77
2023/04/10 11:34:31;;;;;;;14.57;7.47;;;;;;;15.34;54.69;100749.08;125306;1098;103955;-76
2023/04/10 11:37:06;;;;;;;13.30;7.70;;;;;;;15.36;57.00;100734.12;126765;1098;101878;-80
2023/04/10 11:39:42;;;;;;;13.37;7.57;;;;;;;15.31;56.40;100735.80;126762;1098;101586;-82
2023/04/10 11:42:31;;;;;;;16.60;8.80;;;;;;;15.30;56.11;100722.55;126311;1099;101859;-80
2023/04/10 11:45:30;;;;;;;16.53;8.60;;;;;;;15.36;56.88;100720.02;125972;1099;101920;-83
2023/04/10 11:48:16;;;;;;;14.47;8.33;;;;;;;15.34;57.07;100714.70;127034;1098;107012;-80
2023/04/10 11:50:53;;;;;;;15.57;8.10;;;;;;;15.35;56.40;100708.56;126610;1098;101482;-77
2023/04/10 11:53:41;;;;;;;;;;;;;;;;;;;;;
2023/04/10 11:57:00;;;;;;;14.20;8.17;;;;;;;15.43;53.61;100704.31;124949;1099;104066;-81
2023/04/10 11:59:37;;;;;;;17.20;8.97;;;;;;;15.52;53.60;100702.69;125501;1102;101775;-78
2023/04/10 12:02:28;;;;;;;15.70;7.90;;;;;;;15.64;54.14;100709.13;125680;1099;102264;-78
2023/04/10 12:05:01;;;;;;;;;;;;;;;15.72;52.86;100701.33;126833;1098;101561;-78
2023/04/10 12:07:53;;;;;;;13.03;6.60;;;;;;;15.83;55.01;100700.64;126250;1098;101592;-80
2023/04/10 12:11:06;;;;;;;14.00;7.87;;;;;;;15.86;52.36;100700.69;125782;1099;101438;-83
2023/04/10 12:13:40;;;;;;;12.80;7.20;;;;;;;15.77;53.37;100689.09;126140;1099;102017;-81
2023/04/10 12:16:25;;;;;;;13.50;7.40;;;;;;;15.75;53.84;100684.59;125503;1099;102431;-80
2023/04/10 12:19:10;;;;;;;17.40;7.67;;;;;;;15.81;54.82;100682.09;124777;1099;104002;-74